메인 페이지
METAR-TAF:

METAR-TAF

공항 :

지브롤터 공항

지브롤터, 지브롤터

위도: 36-09N, 경도: 005-21W, 고도: 5m

현재 날씨관측

예보는 46분 전, 03:50시(UTC)에 발표되었습니다.
남서7kt
온도 16°C
습도 82%
기압 1013 hPa
시정 10km 이상

METAR: LXGB 220350Z AUTO 23007KT 9999 // NCD 16/13 Q1013

시각: 06:36 (04:36 UTC)

예보

예보는 12 시간 13분 전, 16:23시(UTC)에 발표되었습니다.
예보 대상 시간: 21일 18시부터 21일 22시까지 (UTC)
남서8kt
시정 10km 이상
고도 4000ft 상공 구름 조금
확률 30% :
일시적
21일 18시부터 21일 20시까지 (UTC)
13kt

TAF: LXGB 211623Z 2118/2122 22008KT 9999 FEW040 PROB30 TEMPO 2118/2120 17013KT 520001

4,000개 이상의 공항 관측 자료 및 예보 (METAR 및 TAF 보고).

지도상에서 검색 가능한 기상관측소가 노란 점과 빨간 점으로 표시되어 있습니다.

기상관측소 명을 보려면 표시 위로 마우스를 이동하세요.

날씨 관측과 예보를 보려면 클릭하세요.

지도 변경 : 확대하려면 엑스 표시가 있는 녹색 버튼, 축소하려면 빼기 표시가 있는 녹색 버튼, 다음 페이지의 지도를 보려면 녹색 화살표를 클릭하세요.


METAR-TAF: